Time;durP1;ratioP1;P1;durP2;ratioP2;P2;SDS_P1;SDS_P2;PMS_P1;PMS_P2;Temp;Humidity;BMP_temperature;BMP_pressure;BME280_temperature;BME280_humidity;BME280_pressure;Samples;Min_cycle;Max_cycle;Signal;HPM_P1;HPM_P2
2023/05/22 00:01:00;;;;;;;9.75;7.15;;;18.60;99.90;;;;;;7386737;19;20646;-75
2023/05/22 00:03:28;;;;;;;8.80;6.65;;;18.60;99.90;;;;;;7388127;19;20151;-75
2023/05/22 00:05:57;;;;;;;10.55;7.13;;;18.50;99.90;;;;;;7386566;19;20151;-74
2023/05/22 00:08:27;;;;;;;10.85;7.43;;;18.60;99.90;;;;;;7387927;19;20154;-75
2023/05/22 00:10:54;;;;;;;8.02;6.97;;;18.50;99.90;;;;;;7383226;19;20131;-75
2023/05/22 00:13:20;;;;;;;9.82;6.97;;;18.30;99.90;;;;;;7386148;19;20159;-75
2023/05/22 00:15:46;;;;;;;7.70;6.88;;;18.50;99.90;;;;;;7388408;19;20731;-75
2023/05/22 00:18:12;;;;;;;8.13;6.53;;;18.30;99.90;;;;;;7386104;19;20146;-75
2023/05/22 00:20:39;;;;;;;8.15;6.53;;;18.00;99.90;;;;;;7387881;19;20283;-75
2023/05/22 00:23:09;;;;;;;7.07;6.03;;;17.90;99.90;;;;;;7386495;19;20202;-76
2023/05/22 00:25:35;;;;;;;8.75;6.85;;;17.90;99.90;;;;;;7387420;19;20146;-75
2023/05/22 00:28:01;;;;;;;9.18;7.85;;;18.10;99.90;;;;;;7383751;19;20160;-74
2023/05/22 00:30:27;;;;;;;8.60;7.18;;;18.20;99.90;;;;;;7388613;19;20142;-75
2023/05/22 00:32:52;;;;;;;9.05;7.07;;;18.20;99.90;;;;;;7384760;19;20199;-75
2023/05/22 00:35:18;;;;;;;8.45;6.95;;;18.20;99.90;;;;;;7386060;19;20207;-75
2023/05/22 00:37:44;;;;;;;8.85;7.28;;;18.10;99.90;;;;;;7386595;19;20470;-75
2023/05/22 00:40:12;;;;;;;10.05;7.43;;;18.10;99.90;;;;;;7382571;19;20181;-75
2023/05/22 00:42:38;;;;;;;10.02;7.55;;;18.20;99.90;;;;;;7385815;19;20143;-75
2023/05/22 00:45:05;;;;;;;9.65;6.88;;;18.30;99.90;;;;;;7385796;19;20138;-75
2023/05/22 00:47:31;;;;;;;9.13;7.07;;;18.30;99.90;;;;;;7382838;19;20210;-75
2023/05/22 00:49:58;;;;;;;8.32;6.90;;;18.30;99.90;;;;;;7384682;19;20531;-76
2023/05/22 00:52:24;;;;;;;9.02;7.35;;;18.30;99.90;;;;;;7386608;19;20147;-75
2023/05/22 00:54:52;;;;;;;9.32;7.90;;;18.10;99.90;;;;;;7385815;19;20146;-74
2023/05/22 00:57:20;;;;;;;10.23;7.90;;;18.00;99.90;;;;;;7386745;19;20301;-75
2023/05/22 00:59:47;;;;;;;7.82;7.03;;;17.60;99.90;;;;;;7386698;19;20235;-74
2023/05/22 01:02:15;;;;;;;10.20;7.65;;;17.40;99.90;;;;;;7384938;19;20146;-75
2023/05/22 01:04:47;;;;;;;9.85;7.47;;;17.50;99.90;;;;;;7386560;19;20151;-75
2023/05/22 01:07:19;;;;;;;8.38;7.38;;;17.50;99.90;;;;;;7383612;19;20170;-75
2023/05/22 01:09:44;;;;;;;9.38;7.57;;;17.40;99.90;;;;;;7385937;19;20142;-74
2023/05/22 01:12:16;;;;;;;10.30;7.78;;;17.30;99.90;;;;;;7385309;19;20155;-74
2023/05/22 01:15:23;;;;;;;10.45;7.57;;;17.30;99.90;;;;;;7385980;19;20161;-75
2023/05/22 01:18:18;;;;;;;7.80;7.00;;;17.30;99.90;;;;;;7383866;19;20138;-75
2023/05/22 01:21:09;;;;;;;8.27;7.18;;;17.20;99.90;;;;;;7386053;19;20148;-75
2023/05/22 01:24:19;;;;;;;9.43;7.65;;;17.20;99.90;;;;;;7382910;19;20141;-74
2023/05/22 01:27:49;;;;;;;11.15;8.27;;;17.40;99.90;;;;;;7381980;19;20150;-75
2023/05/22 01:30:39;;;;;;;9.25;7.80;;;17.80;99.90;;;;;;7377977;19;20138;-75
2023/05/22 01:33:07;;;;;;;9.35;7.35;;;17.80;99.90;;;;;;7382089;19;20626;-75
2023/05/22 01:35:36;;;;;;;8.88;7.38;;;17.80;99.90;;;;;;7382996;19;20154;-75
2023/05/22 01:38:03;;;;;;;11.98;7.55;;;17.80;99.90;;;;;;7383423;19;20150;-75
2023/05/22 01:40:29;;;;;;;9.15;7.72;;;17.80;99.90;;;;;;7386407;19;20139;-75
2023/05/22 01:42:55;;;;;;;8.93;7.60;;;17.80;99.90;;;;;;7383969;19;20153;-75
2023/05/22 01:45:21;;;;;;;9.90;8.02;;;17.70;99.90;;;;;;7384108;19;20131;-74
2023/05/22 01:47:47;;;;;;;10.80;8.00;;;17.70;99.90;;;;;;7381514;19;20161;-75
2023/05/22 01:50:13;;;;;;;9.13;7.47;;;17.50;99.90;;;;;;7385493;19;20138;-75
2023/05/22 01:52:46;;;;;;;10.40;8.23;;;17.40;99.90;;;;;;7383609;19;20234;-75
2023/05/22 01:55:19;;;;;;;9.23;7.60;;;17.30;99.90;;;;;;7381958;19;20149;-75
2023/05/22 01:58:15;;;;;;;9.75;7.18;;;17.50;99.90;;;;;;7384173;19;20159;-75
2023/05/22 02:00:44;;;;;;;9.52;7.25;;;17.60;99.90;;;;;;7389205;19;20158;-75
2023/05/22 02:03:18;;;;;;;10.02;7.82;;;17.70;99.90;;;;;;7392225;19;20158;-74
2023/05/22 02:05:48;;;;;;;9.77;7.50;;;17.50;99.90;;;;;;7391962;19;20147;-75
2023/05/22 02:08:15;;;;;;;9.13;7.25;;;17.40;99.90;;;;;;7390228;19;20138;-75
2023/05/22 02:10:43;;;;;;;9.98;7.80;;;17.30;99.90;;;;;;7389276;19;20218;-76
2023/05/22 02:13:09;;;;;;;10.02;6.93;;;17.20;99.90;;;;;;7390155;19;20505;-75
2023/05/22 02:15:35;;;;;;;10.10;7.72;;;16.80;99.90;;;;;;7391749;19;20134;-75
2023/05/22 02:18:01;;;;;;;10.18;7.68;;;17.10;99.90;;;;;;7391158;19;20606;-75
2023/05/22 02:20:28;;;;;;;9.68;7.88;;;17.20;99.90;;;;;;7392677;19;20210;-74
2023/05/22 02:22:54;;;;;;;9.77;7.50;;;17.20;99.90;;;;;;7391038;19;20155;-75
2023/05/22 02:25:20;;;;;;;10.75;8.15;;;17.20;99.90;;;;;;7392332;19;20143;-74
2023/05/22 02:27:46;;;;;;;10.35;7.68;;;17.30;99.90;;;;;;7387833;19;20149;-74
2023/05/22 02:30:13;;;;;;;9.55;7.80;;;17.40;99.90;;;;;;7390468;19;20496;-75
2023/05/22 02:32:42;;;;;;;8.82;7.47;;;17.40;99.90;;;;;;7388595;19;20493;-75
2023/05/22 02:35:08;;;;;;;10.40;8.00;;;17.40;99.90;;;;;;7390005;19;20176;-76
2023/05/22 02:37:34;;;;;;;11.10;8.13;;;17.50;99.90;;;;;;7391657;19;20138;-75
2023/05/22 02:40:00;;;;;;;11.13;7.32;;;17.50;99.90;;;;;;7389356;19;20604;-76
2023/05/22 02:42:26;;;;;;;8.85;7.40;;;17.30;99.90;;;;;;7389551;19;20158;-75
2023/05/22 02:44:52;;;;;;;12.45;7.53;;;17.60;99.90;;;;;;7390415;19;20149;-75
2023/05/22 02:47:20;;;;;;;9.48;8.07;;;17.50;99.90;;;;;;7387971;19;20143;-75
2023/05/22 02:49:46;;;;;;;8.75;7.20;;;17.30;99.90;;;;;;7387316;19;20169;-75
2023/05/22 02:52:12;;;;;;;10.63;7.78;;;17.50;99.90;;;;;;7389750;19;20138;-76
2023/05/22 02:54:38;;;;;;;12.30;8.25;;;17.60;99.90;;;;;;7389250;19;20181;-75
2023/05/22 02:57:07;;;;;;;11.23;8.32;;;17.60;99.90;;;;;;7388869;19;20169;-76
2023/05/22 02:59:35;;;;;;;9.18;7.90;;;17.80;99.90;;;;;;7385060;19;20242;-75
2023/05/22 03:02:01;;;;;;;9.77;8.15;;;17.70;99.90;;;;;;7388732;19;20152;-75
2023/05/22 03:04:29;;;;;;;8.57;7.68;;;17.70;99.90;;;;;;7389094;19;20496;-75
2023/05/22 03:06:57;;;;;;;9.63;8.05;;;17.70;99.90;;;;;;7387481;19;20150;-75
2023/05/22 03:09:25;;;;;;;11.05;8.23;;;17.60;99.90;;;;;;7389166;19;20130;-75
2023/05/22 03:11:51;;;;;;;9.68;8.05;;;17.60;99.90;;;;;;7385703;19;20494;-75
2023/05/22 03:14:17;;;;;;;9.82;7.38;;;17.60;99.90;;;;;;7388485;19;20142;-74
2023/05/22 03:16:42;;;;;;;10.50;7.55;;;17.50;99.90;;;;;;7388493;19;20150;-76
2023/05/22 03:19:12;;;;;;;11.80;8.02;;;17.60;99.90;;;;;;7387458;19;20654;-75
2023/05/22 03:21:39;;;;;;;11.05;7.90;;;17.80;99.90;;;;;;7389709;19;20185;-75
2023/05/22 03:24:06;;;;;;;10.43;7.95;;;17.80;99.90;;;;;;7388470;19;20158;-75
2023/05/22 03:26:31;;;;;;;8.65;7.75;;;17.70;99.90;;;;;;7388242;19;20146;-75
2023/05/22 03:28:57;;;;;;;12.02;8.60;;;17.40;99.90;;;;;;7386955;19;20154;-75
2023/05/22 03:31:25;;;;;;;9.15;7.97;;;17.40;99.90;;;;;;7388247;19;20228;-75
2023/05/22 03:33:53;;;;;;;10.02;8.25;;;17.20;99.90;;;;;;7387100;19;20154;-74
2023/05/22 03:36:20;;;;;;;10.00;7.63;;;17.10;99.90;;;;;;7391008;19;20145;-76
2023/05/22 03:38:46;;;;;;;10.77;8.45;;;17.10;99.90;;;;;;7389249;19;20151;-75
2023/05/22 03:41:12;;;;;;;10.25;8.43;;;17.20;99.90;;;;;;7386903;19;20500;-75
2023/05/22 03:43:37;;;;;;;9.60;8.00;;;17.30;99.90;;;;;;7387808;19;20281;-75
2023/05/22 03:46:03;;;;;;;10.05;7.88;;;17.40;99.90;;;;;;7386592;19;20157;-75
2023/05/22 03:48:30;;;;;;;11.68;8.88;;;17.40;99.90;;;;;;7381783;19;20150;-75
2023/05/22 03:50:55;;;;;;;12.23;8.68;;;17.40;99.90;;;;;;7386938;19;20142;-75
2023/05/22 03:53:21;;;;;;;9.90;8.43;;;17.40;99.90;;;;;;7387278;19;20177;-75
2023/05/22 03:55:47;;;;;;;10.52;8.30;;;17.60;99.90;;;;;;7389098;19;20155;-75
2023/05/22 03:58:13;;;;;;;10.27;8.75;;;17.70;99.90;;;;;;7386403;19;20500;-74
2023/05/22 04:00:38;;;;;;;10.27;8.52;;;17.70;99.90;;;;;;7388383;19;20161;-75
2023/05/22 04:03:06;;;;;;;11.20;8.95;;;17.70;99.90;;;;;;7389143;19;20146;-75
2023/05/22 04:05:32;;;;;;;10.38;8.85;;;17.70;99.90;;;;;;7388114;19;20149;-74
2023/05/22 04:07:57;;;;;;;11.65;8.88;;;17.60;99.90;;;;;;7383222;19;20446;-75
2023/05/22 04:10:23;;;;;;;12.35;8.95;;;17.60;99.90;;;;;;7389511;19;20138;-75
2023/05/22 04:12:49;;;;;;;10.10;8.25;;;17.60;99.90;;;;;;7388972;19;20189;-75
2023/05/22 04:15:15;;;;;;;11.25;8.82;;;17.50;99.90;;;;;;7389277;19;20142;-76
2023/05/22 04:17:41;;;;;;;10.75;8.90;;;17.50;99.90;;;;;;7386105;19;20154;-76
2023/05/22 04:20:07;;;;;;;12.32;8.38;;;17.50;99.90;;;;;;7388244;19;20154;-75
2023/05/22 04:22:33;;;;;;;10.93;8.35;;;17.50;99.90;;;;;;7386291;19;20937;-75
2023/05/22 04:24:59;;;;;;;10.23;8.35;;;17.60;99.90;;;;;;7388141;19;20139;-75
2023/05/22 04:27:25;;;;;;;10.65;8.73;;;17.60;99.90;;;;;;7383001;19;20146;-74
2023/05/22 04:29:52;;;;;;;12.82;8.50;;;17.50;99.90;;;;;;7386256;19;20139;-74
2023/05/22 04:32:20;;;;;;;10.85;9.02;;;17.50;99.90;;;;;;7387059;19;20142;-74
2023/05/22 04:34:52;;;;;;;11.52;8.68;;;17.60;99.90;;;;;;7388748;19;20143;-75
2023/05/22 04:37:19;;;;;;;10.98;8.57;;;17.60;99.90;;;;;;7387252;19;20533;-75
2023/05/22 04:39:45;;;;;;;9.02;7.70;;;17.60;99.90;;;;;;7386333;19;20159;-75
2023/05/22 04:42:14;;;;;;;10.65;8.65;;;17.60;99.90;;;;;;7387378;19;20135;-76
2023/05/22 04:44:41;;;;;;;11.20;8.73;;;17.50;99.90;;;;;;7387292;19;20155;-75
2023/05/22 04:47:10;;;;;;;10.85;8.35;;;17.50;99.90;;;;;;7383305;19;20609;-75
2023/05/22 04:49:37;;;;;;;11.93;8.65;;;17.50;99.90;;;;;;7388814;19;20142;-75
2023/05/22 04:52:04;;;;;;;11.48;9.15;;;17.60;99.90;;;;;;7387365;19;20134;-76
2023/05/22 04:54:30;;;;;;;10.73;8.10;;;17.20;99.90;;;;;;7385467;19;20135;-75
2023/05/22 04:56:56;;;;;;;10.65;8.70;;;17.20;99.90;;;;;;7385443;19;20584;-76
2023/05/22 04:59:25;;;;;;;12.25;8.80;;;17.40;99.90;;;;;;7381966;19;20150;-75
2023/05/22 05:01:51;;;;;;;10.90;8.65;;;17.60;99.90;;;;;;7386816;19;20472;-76
2023/05/22 05:04:17;;;;;;;11.00;8.90;;;17.70;99.90;;;;;;7384831;19;20150;-77
2023/05/22 05:06:43;;;;;;;10.20;8.88;;;17.80;99.90;;;;;;7386257;19;20176;-75
2023/05/22 05:09:09;;;;;;;11.27;9.23;;;17.80;99.90;;;;;;7383663;19;20161;-77
2023/05/22 05:11:35;;;;;;;14.35;9.15;;;17.80;99.90;;;;;;7386730;19;20302;-77
2023/05/22 05:14:01;;;;;;;10.00;8.20;;;17.80;99.90;;;;;;7384095;19;20135;-76
2023/05/22 05:16:27;;;;;;;12.07;8.25;;;17.80;99.90;;;;;;7384579;19;20256;-77
2023/05/22 05:18:54;;;;;;;12.77;9.88;;;17.90;99.90;;;;;;7384113;19;20933;-76
2023/05/22 05:21:20;;;;;;;12.43;9.55;;;17.90;99.90;;;;;;7385784;19;20218;-76
2023/05/22 05:23:46;;;;;;;13.48;9.32;;;17.90;99.90;;;;;;7382728;19;20139;-76
2023/05/22 05:26:12;;;;;;;11.73;9.13;;;17.80;99.90;;;;;;7382653;19;20158;-75
2023/05/22 05:28:38;;;;;;;12.07;9.32;;;17.90;99.90;;;;;;7382696;19;20142;-76
2023/05/22 05:31:04;;;;;;;13.07;9.88;;;17.90;99.90;;;;;;7383415;19;20630;-75
2023/05/22 05:33:30;;;;;;;11.45;9.88;;;17.90;99.90;;;;;;7380443;19;20155;-75
2023/05/22 05:35:55;;;;;;;10.73;9.05;;;17.90;99.90;;;;;;7388822;19;20952;-76
2023/05/22 05:38:21;;;;;;;12.40;9.25;;;18.00;99.90;;;;;;7381364;19;20784;-76
2023/05/22 05:40:48;;;;;;;14.32;9.30;;;18.10;99.90;;;;;;7385103;19;20142;-76
2023/05/22 05:43:14;;;;;;;11.18;8.73;;;18.20;99.90;;;;;;7381914;19;20153;-76
2023/05/22 05:45:41;;;;;;;11.50;8.85;;;18.20;99.90;;;;;;7384943;19;20893;-76
2023/05/22 05:48:07;;;;;;;15.40;8.98;;;18.20;99.90;;;;;;7384715;19;20147;-75
2023/05/22 05:50:32;;;;;;;12.80;9.75;;;18.40;99.90;;;;;;7389615;19;20186;-76
2023/05/22 05:52:58;;;;;;;11.75;8.77;;;18.50;99.90;;;;;;7387209;19;20556;-76
2023/05/22 05:55:24;;;;;;;10.80;8.80;;;18.70;99.90;;;;;;7390554;19;20143;-75
2023/05/22 05:57:51;;;;;;;13.13;9.75;;;18.60;99.90;;;;;;7386871;19;20147;-76
2023/05/22 06:00:17;;;;;;;12.27;9.07;;;18.70;99.90;;;;;;7392475;19;20130;-76
2023/05/22 06:02:44;;;;;;;10.80;8.60;;;18.70;99.90;;;;;;7390438;19;20150;-77
2023/05/22 06:05:10;;;;;;;11.20;8.75;;;18.70;99.90;;;;;;7390340;19;20142;-76
2023/05/22 06:07:39;;;;;;;14.40;8.75;;;18.80;99.90;;;;;;7387612;19;20134;-77
2023/05/22 06:10:14;;;;;;;10.15;8.27;;;18.90;99.90;;;;;;7389359;19;20475;-77
2023/05/22 06:12:40;;;;;;;11.25;8.35;;;19.00;99.90;;;;;;7389514;19;20141;-76
2023/05/22 06:15:07;;;;;;;11.23;9.30;;;19.20;99.90;;;;;;7389287;19;20161;-75
2023/05/22 06:17:34;;;;;;;9.38;8.25;;;20.00;99.90;;;;;;7391023;19;20571;-75
2023/05/22 06:20:00;;;;;;;10.15;8.27;;;21.50;99.90;;;;;;7390404;19;20622;-75
2023/05/22 06:22:26;;;;;;;11.77;7.95;;;23.00;99.90;;;;;;7389630;19;20133;-74
2023/05/22 06:24:55;;;;;;;9.60;7.63;;;24.30;99.90;;;;;;7389182;19;20123;-75
2023/05/22 06:27:21;;;;;;;11.85;7.88;;;25.20;99.90;;;;;;7387033;19;20126;-77
2023/05/22 06:29:50;;;;;;;9.60;7.93;;;25.40;99.90;;;;;;7388142;19;20134;-77
2023/05/22 06:32:16;;;;;;;9.88;8.05;;;25.70;99.90;;;;;;7390910;19;20130;-76
2023/05/22 06:34:43;;;;;;;12.35;8.80;;;26.10;99.90;;;;;;7389468;19;20127;-77
2023/05/22 06:37:12;;;;;;;10.23;8.45;;;26.00;99.90;;;;;;7388777;19;20154;-76
2023/05/22 06:39:39;;;;;;;8.73;7.28;;;26.50;99.90;;;;;;7388970;19;20575;-77
2023/05/22 06:42:05;;;;;;;9.48;7.90;;;27.00;99.90;;;;;;7388815;19;20134;-76
2023/05/22 06:44:31;;;;;;;11.55;9.10;;;27.60;99.90;;;;;;7388429;19;20150;-75
2023/05/22 06:46:56;;;;;;;10.73;8.75;;;28.00;99.90;;;;;;7384632;19;20123;-76
2023/05/22 06:49:22;;;;;;;12.52;8.20;;;27.60;99.90;;;;;;7388096;19;20239;-78
2023/05/22 06:51:49;;;;;;;10.02;8.95;;;27.20;99.90;;;;;;7391609;19;20133;-76
2023/05/22 06:54:15;;;;;;;14.63;9.23;;;26.30;99.90;;;;;;7387447;19;20151;-78
2023/05/22 06:56:41;;;;;;;11.15;8.88;;;25.60;99.90;;;;;;7386793;19;20625;-78
2023/05/22 06:59:09;;;;;;;10.18;8.18;;;26.00;99.90;;;;;;7383514;19;20196;-76
2023/05/22 07:01:35;;;;;;;10.90;8.73;;;26.10;99.90;;;;;;7388129;19;20180;-76
2023/05/22 07:04:03;;;;;;;10.55;8.30;;;26.20;99.90;;;;;;7388647;19;20761;-78
2023/05/22 07:06:37;;;;;;;13.73;9.52;;;26.30;99.90;;;;;;7386976;19;20194;-77
2023/05/22 07:09:04;;;;;;;12.13;9.43;;;26.20;99.90;;;;;;7388395;19;20598;-74
2023/05/22 07:11:30;;;;;;;13.23;8.82;;;25.50;99.90;;;;;;7391886;19;20606;-81
2023/05/22 07:13:56;;;;;;;11.80;9.77;;;24.90;99.90;;;;;;7390149;19;20131;-80
2023/05/22 07:16:24;;;;;;;12.82;8.10;;;24.70;99.90;;;;;;7390104;19;20160;-79
2023/05/22 07:18:50;;;;;;;9.55;8.10;;;24.70;99.90;;;;;;7387351;19;20485;-80
2023/05/22 07:21:16;;;;;;;12.85;8.10;;;25.20;99.90;;;;;;7389507;19;20161;-75
2023/05/22 07:23:42;;;;;;;13.63;10.05;;;25.50;99.90;;;;;;7390141;19;20151;-81
2023/05/22 07:26:08;;;;;;;10.57;8.40;;;25.70;99.90;;;;;;7390602;19;20578;-80
2023/05/22 07:28:34;;;;;;;12.10;8.75;;;25.90;99.90;;;;;;7391730;19;20134;-74
2023/05/22 07:31:00;;;;;;;13.18;8.57;;;25.90;99.90;;;;;;7388211;19;20150;-75
2023/05/22 07:33:26;;;;;;;10.82;8.32;;;25.90;99.90;;;;;;7390118;19;20222;-74
2023/05/22 07:35:51;;;;;;;10.45;8.80;;;26.00;99.90;;;;;;7387244;19;20137;-74
2023/05/22 07:38:17;;;;;;;11.15;8.55;;;26.30;99.90;;;;;;7388400;19;20221;-74
2023/05/22 07:40:43;;;;;;;10.70;8.25;;;26.80;99.90;;;;;;7390279;19;20131;-73
2023/05/22 07:43:09;;;;;;;11.43;9.55;;;26.90;99.90;;;;;;7388315;19;20153;-73
2023/05/22 07:45:35;;;;;;;9.63;8.00;;;26.70;99.90;;;;;;7388601;19;20138;-73
2023/05/22 07:48:03;;;;;;;10.02;8.45;;;26.30;99.90;;;;;;7385040;19;20598;-72
2023/05/22 07:50:29;;;;;;;10.55;8.45;;;26.30;99.90;;;;;;7388787;19;20602;-73
2023/05/22 07:52:55;;;;;;;12.32;8.20;;;26.30;99.90;;;;;;7388534;19;20812;-73
2023/05/22 07:55:21;;;;;;;11.88;8.85;;;26.50;99.90;;;;;;7388938;19;20489;-73
2023/05/22 07:57:47;;;;;;;10.07;8.45;;;26.70;99.90;;;;;;7384911;19;20162;-73
2023/05/22 08:00:13;;;;;;;10.10;7.80;;;26.70;99.90;;;;;;7383429;19;20134;-74
2023/05/22 08:02:52;;;;;;;10.13;8.20;;;26.60;99.90;;;;;;7388247;19;20146;-74
2023/05/22 08:05:34;;;;;;;11.05;9.57;;;26.70;99.90;;;;;;7387203;19;20154;-74
2023/05/22 08:08:01;;;;;;;9.43;8.38;;;26.90;99.90;;;;;;7382900;19;20149;-73
2023/05/22 08:10:27;;;;;;;10.45;8.95;;;27.10;99.90;;;;;;7385230;19;20475;-73
2023/05/22 08:12:57;;;;;;;10.02;8.80;;;27.40;99.90;;;;;;7387156;19;20131;-75
2023/05/22 08:15:23;;;;;;;9.10;7.80;;;27.40;99.90;;;;;;7386983;19;20182;-72
2023/05/22 08:17:49;;;;;;;12.25;7.90;;;26.90;99.90;;;;;;7385560;19;20481;-73
2023/05/22 08:20:14;;;;;;;11.05;8.45;;;26.40;99.90;;;;;;7388045;19;20127;-75
2023/05/22 08:22:41;;;;;;;9.80;8.50;;;25.80;99.90;;;;;;7386197;19;20161;-74
2023/05/22 08:25:08;;;;;;;11.20;8.68;;;25.00;99.90;;;;;;7386101;19;20271;-75
2023/05/22 08:27:33;;;;;;;10.50;8.63;;;24.40;99.90;;;;;;7386337;19;20137;-76
2023/05/22 08:30:00;;;;;;;10.05;7.85;;;24.30;99.90;;;;;;7383622;19;20150;-77
2023/05/22 08:32:26;;;;;;;9.57;7.45;;;24.20;99.90;;;;;;7382140;19;20259;-76
2023/05/22 08:34:51;;;;;;;9.02;7.35;;;24.00;99.90;;;;;;7383213;19;20139;-80
2023/05/22 08:37:17;;;;;;;8.52;6.78;;;24.00;99.90;;;;;;7383574;19;20131;-80
2023/05/22 08:39:43;;;;;;;7.95;7.15;;;23.80;99.90;;;;;;7380846;19;20158;-80
2023/05/22 08:42:08;;;;;;;7.18;6.47;;;23.70;99.90;;;;;;7382599;19;20146;-80
2023/05/22 08:44:35;;;;;;;8.05;6.88;;;23.70;99.90;;;;;;7387125;19;20148;-80
2023/05/22 08:47:08;;;;;;;8.68;7.75;;;23.80;99.90;;;;;;7396395;19;20615;-81
2023/05/22 08:49:34;;;;;;;8.68;6.60;;;23.80;99.90;;;;;;7384791;19;20154;-79
2023/05/22 08:52:26;;;;;;;10.13;7.40;;;23.80;99.90;;;;;;7386709;19;20175;-82
2023/05/22 08:54:55;;;;;;;10.57;7.80;;;23.70;99.90;;;;;;7391413;19;20141;-78
2023/05/22 08:57:22;;;;;;;11.65;7.15;;;24.10;99.90;;;;;;7389279;19;20149;-79
2023/05/22 08:59:49;;;;;;;10.55;7.93;;;24.30;99.90;;;;;;7385803;19;20130;-78
2023/05/22 09:02:18;;;;;;;10.35;7.25;;;24.50;99.90;;;;;;7385681;19;20153;-80
2023/05/22 09:04:44;;;;;;;8.40;6.75;;;24.90;99.90;;;;;;7387834;19;20557;-77
2023/05/22 09:07:09;;;;;;;8.52;7.25;;;25.20;99.90;;;;;;7383403;19;20402;-79
2023/05/22 09:09:39;;;;;;;11.13;7.18;;;25.50;99.90;;;;;;7387421;19;20119;-79
2023/05/22 09:12:08;;;;;;;10.18;7.10;;;25.80;99.90;;;;;;7394366;19;20143;-79
2023/05/22 09:14:39;;;;;;;8.45;7.53;;;26.00;99.90;;;;;;7390787;19;20603;-80
2023/05/22 09:17:05;;;;;;;13.15;9.40;;;25.90;99.90;;;;;;7392598;19;20268;-81
2023/05/22 09:19:32;;;;;;;10.30;7.30;;;26.10;99.90;;;;;;7393782;19;20138;-83
2023/05/22 09:22:05;;;;;;;8.25;6.88;;;26.40;99.90;;;;;;7392264;19;20154;-81
2023/05/22 09:24:37;;;;;;;9.35;7.55;;;26.60;99.90;;;;;;7394821;19;20131;-82
2023/05/22 09:27:05;;;;;;;9.02;6.90;;;26.80;99.90;;;;;;7397031;19;20131;-81
2023/05/22 09:29:32;;;;;;;7.47;6.68;;;26.80;99.90;;;;;;7393809;19;20142;-80
2023/05/22 09:31:58;;;;;;;8.90;6.78;;;26.80;99.90;;;;;;7392414;19;20151;-80
2023/05/22 09:34:31;;;;;;;9.57;8.13;;;26.70;99.90;;;;;;7390977;19;20157;-80
2023/05/22 09:37:02;;;;;;;8.70;7.68;;;26.70;99.90;;;;;;7393860;19;20146;-83
2023/05/22 09:39:39;;;;;;;9.25;6.93;;;26.70;99.90;;;;;;7400787;19;20646;-81
2023/05/22 09:42:06;;;;;;;8.00;7.13;;;26.40;99.90;;;;;;7402707;19;20486;-82
2023/05/22 09:44:32;;;;;;;9.02;7.75;;;26.30;99.90;;;;;;7393969;19;20127;-82
2023/05/22 09:46:58;;;;;;;10.88;7.57;;;26.30;99.90;;;;;;7394471;19;20147;-79
2023/05/22 09:49:23;;;;;;;10.18;7.65;;;26.30;99.90;;;;;;7395140;19;20135;-82
2023/05/22 09:51:53;;;;;;;9.23;7.75;;;26.40;99.90;;;;;;7395979;19;20161;-82
2023/05/22 09:54:20;;;;;;;8.20;7.03;;;26.50;99.90;;;;;;7399351;19;20131;-81
2023/05/22 09:56:53;;;;;;;6.93;6.22;;;26.50;99.90;;;;;;7393511;19;20805;-83
2023/05/22 09:59:28;;;;;;;8.45;6.03;;;26.40;99.90;;;;;;7388654;19;20587;-79
2023/05/22 10:01:55;;;;;;;10.88;7.03;;;26.30;99.90;;;;;;7392323;19;20167;-83
2023/05/22 10:04:22;;;;;;;8.00;6.88;;;26.20;99.90;;;;;;7390870;19;20146;-84
2023/05/22 10:06:53;;;;;;;8.30;7.25;;;26.10;99.90;;;;;;7389927;19;20151;-80
2023/05/22 10:09:25;;;;;;;7.38;6.57;;;25.70;99.90;;;;;;7388397;19;21402;-80
2023/05/22 10:11:54;;;;;;;8.23;7.43;;;25.50;99.90;;;;;;7395880;19;20140;-80
2023/05/22 10:14:20;;;;;;;8.95;7.60;;;25.40;99.90;;;;;;7387576;19;20144;-85
2023/05/22 10:16:46;;;;;;;11.18;6.70;;;25.30;99.90;;;;;;7390402;19;20146;-81
2023/05/22 10:19:13;;;;;;;9.35;6.90;;;25.30;99.90;;;;;;7388973;19;20176;-80
2023/05/22 10:21:40;;;;;;;7.85;7.05;;;25.30;99.90;;;;;;7397715;19;20138;-79
2023/05/22 10:24:07;;;;;;;8.02;7.15;;;25.30;99.90;;;;;;7391621;19;20169;-79
2023/05/22 10:26:33;;;;;;;9.88;7.07;;;25.20;99.90;;;;;;7397147;19;20147;-82
2023/05/22 10:29:06;;;;;;;9.52;7.15;;;25.30;99.90;;;;;;7390074;19;20158;-85
2023/05/22 10:31:45;;;;;;;8.25;6.90;;;25.30;99.90;;;;;;7390303;19;20150;-81
2023/05/22 10:34:20;;;;;;;11.80;7.78;;;25.30;99.90;;;;;;7390301;19;20265;-84
2023/05/22 10:37:10;;;;;;;9.65;7.40;;;25.20;99.90;;;;;;7389883;19;20159;-83
2023/05/22 10:39:51;;;;;;;7.78;6.97;;;25.30;99.90;;;;;;7395875;19;20155;-82
2023/05/22 10:42:17;;;;;;;7.95;7.13;;;25.40;99.90;;;;;;7391047;19;20170;-80
2023/05/22 10:44:42;;;;;;;7.80;7.00;;;25.60;99.90;;;;;;7391265;19;20202;-81
2023/05/22 10:47:11;;;;;;;9.05;7.50;;;25.80;99.90;;;;;;7392426;19;20221;-80
2023/05/22 10:49:37;;;;;;;9.05;7.43;;;25.80;99.90;;;;;;7388693;19;20142;-81
2023/05/22 10:52:04;;;;;;;10.77;9.43;;;25.70;99.90;;;;;;7389360;19;20142;-83
2023/05/22 10:54:41;;;;;;;12.15;10.57;;;25.70;99.90;;;;;;7393284;19;20159;-83
2023/05/22 10:57:17;;;;;;;10.35;7.72;;;26.00;99.90;;;;;;7389545;19;20138;-80
2023/05/22 10:59:46;;;;;;;10.60;9.48;;;26.10;99.90;;;;;;7392615;19;20150;-81
2023/05/22 11:02:29;;;;;;;11.02;9.60;;;26.20;99.90;;;;;;7387129;19;20535;-83
2023/05/22 11:05:19;;;;;;;9.00;7.00;;;26.30;99.90;;;;;;7382559;19;20143;-75
2023/05/22 11:08:26;;;;;;;10.35;7.18;;;26.30;99.90;;;;;;7380475;19;20134;-74
2023/05/22 11:11:12;;;;;;;9.93;7.43;;;26.20;99.90;;;;;;7369400;19;20134;-75
2023/05/22 11:42:28;;;;;;;7.35;6.07;;;26.00;99.90;;;;;;7278476;19;20189;-72
2023/05/22 11:44:55;;;;;;;10.18;7.05;;;25.90;99.90;;;;;;7383641;19;20143;-73
2023/05/22 11:47:21;;;;;;;8.40;6.25;;;26.10;99.90;;;;;;7383498;19;20151;-74
2023/05/22 11:49:47;;;;;;;7.53;6.43;;;26.10;99.90;;;;;;7383485;19;20893;-73
2023/05/22 11:52:14;;;;;;;7.18;6.40;;;26.10;99.90;;;;;;7388024;19;20151;-76
2023/05/22 11:54:47;;;;;;;8.25;6.03;;;26.20;99.90;;;;;;7386444;19;20139;-76
2023/05/22 11:57:14;;;;;;;7.07;5.85;;;26.10;99.90;;;;;;7387199;19;20219;-75
2023/05/22 11:59:47;;;;;;;8.73;6.25;;;26.10;99.90;;;;;;7385938;19;20162;-74
2023/05/22 12:02:14;;;;;;;8.88;6.05;;;26.20;99.90;;;;;;7388301;19;20130;-74
2023/05/22 12:04:40;;;;;;;9.02;7.38;;;26.40;99.90;;;;;;7386556;19;20158;-72
2023/05/22 12:07:06;;;;;;;7.00;6.30;;;26.60;99.90;;;;;;7386165;19;20573;-74
2023/05/22 12:09:32;;;;;;;10.13;7.05;;;26.80;99.90;;;;;;7385601;19;20150;-74
2023/05/22 12:11:59;;;;;;;11.13;7.50;;;26.70;99.90;;;;;;7382440;19;20159;-73
2023/05/22 12:14:26;;;;;;;9.20;6.70;;;26.60;99.90;;;;;;7385783;19;20150;-73
2023/05/22 12:16:52;;;;;;;8.15;6.40;;;26.50;99.90;;;;;;7385233;19;20141;-74
2023/05/22 12:19:18;;;;;;;7.75;6.45;;;26.70;99.90;;;;;;7385483;19;20242;-73
2023/05/22 12:21:44;;;;;;;8.13;6.47;;;26.80;99.90;;;;;;7386271;19;20154;-74
2023/05/22 12:24:10;;;;;;;8.73;6.93;;;26.80;99.90;;;;;;7387560;19;20163;-74
2023/05/22 12:26:36;;;;;;;8.18;7.20;;;26.80;99.90;;;;;;7386291;19;20762;-74
2023/05/22 12:29:04;;;;;;;8.27;7.03;;;26.70;99.90;;;;;;7389347;19;20135;-73
2023/05/22 12:31:37;;;;;;;7.75;7.00;;;26.70;99.90;;;;;;7387062;19;20454;-73
2023/05/22 12:34:05;;;;;;;7.65;6.85;;;26.80;99.90;;;;;;7386746;19;20559;-74
2023/05/22 12:36:38;;;;;;;9.15;7.18;;;26.70;99.90;;;;;;7385166;19;20138;-74
2023/05/22 12:39:12;;;;;;;9.27;6.78;;;26.60;99.90;;;;;;7385778;19;20169;-74
2023/05/22 12:41:38;;;;;;;10.10;6.53;;;26.60;99.90;;;;;;7384360;19;20602;-75
2023/05/22 12:44:05;;;;;;;7.63;6.18;;;26.70;99.90;;;;;;7385914;19;20467;-74
2023/05/22 12:46:31;;;;;;;11.52;8.85;;;26.60;99.90;;;;;;7385927;19;20598;-75
2023/05/22 12:48:58;;;;;;;7.05;6.22;;;26.60;99.90;;;;;;7385043;19;20186;-74
2023/05/22 12:51:31;;;;;;;7.45;6.30;;;26.70;99.90;;;;;;7383754;19;20184;-74
2023/05/22 12:53:58;;;;;;;6.93;6.20;;;26.80;99.90;;;;;;7386014;19;20495;-75
2023/05/22 12:56:24;;;;;;;7.00;6.30;;;26.90;99.90;;;;;;7383746;19;20170;-76
2023/05/22 12:58:50;;;;;;;7.43;6.10;;;27.10;99.90;;;;;;7385226;19;20488;-75
2023/05/22 13:01:16;;;;;;;6.95;6.22;;;27.10;99.90;;;;;;7384651;19;20148;-76
2023/05/22 13:03:42;;;;;;;7.60;6.80;;;27.10;99.90;;;;;;7384739;19;20293;-75
2023/05/22 13:06:08;;;;;;;6.75;5.88;;;27.00;99.90;;;;;;7383689;19;20138;-75
2023/05/22 13:08:34;;;;;;;6.80;6.10;;;27.00;99.90;;;;;;7380904;19;20145;-75
2023/05/22 13:11:00;;;;;;;9.15;6.50;;;27.00;99.90;;;;;;7383756;19;20229;-75
2023/05/22 13:13:25;;;;;;;9.88;6.78;;;27.00;99.90;;;;;;7385802;19;20138;-75
2023/05/22 13:15:51;;;;;;;8.00;6.57;;;27.20;99.90;;;;;;7385129;19;20134;-76